createdAt,value
2019-01-20T00:00:16.105Z,40.57
2019-01-20T00:02:44.626Z,40.40
2019-01-20T00:05:14.177Z,40.03
2019-01-20T00:07:42.587Z,38.97
2019-01-20T00:10:12.710Z,40.57
2019-01-20T00:12:41.195Z,40.13
2019-01-20T00:15:12.596Z,41.07
2019-01-20T00:17:41.017Z,40.20
2019-01-20T00:20:09.663Z,40.23
2019-01-20T00:22:38.109Z,39.47
2019-01-20T00:25:08.912Z,39.50
2019-01-20T00:27:37.669Z,40.87
2019-01-20T00:30:14.939Z,41.63
2019-01-20T00:32:43.438Z,41.53
2019-01-20T00:35:11.916Z,40.57
2019-01-20T00:37:40.356Z,41.43
2019-01-20T00:40:11.855Z,40.47
2019-01-20T00:42:40.299Z,40.83
2019-01-20T00:45:11.842Z,37.87
2019-01-20T00:47:40.638Z,39.20
2019-01-20T00:50:11.078Z,39.63
2019-01-20T00:52:39.504Z,39.30
2019-01-20T00:55:11.240Z,40.53
2019-01-20T00:57:40.819Z,40.67
2019-01-20T01:00:15.745Z,41.00
2019-01-20T01:02:44.388Z,42.77
2019-01-20T01:05:13.796Z,40.70
2019-01-20T01:07:42.268Z,41.97
2019-01-20T01:10:10.931Z,41.90
2019-01-20T01:12:39.912Z,42.53
2019-01-20T01:15:10.564Z,42.90
2019-01-20T01:17:39.219Z,42.37
2019-01-20T01:20:13.035Z,40.93
2019-01-20T01:22:41.748Z,40.03
2019-01-20T01:25:11.728Z,41.93
2019-01-20T01:27:40.216Z,46.73
2019-01-20T01:30:14.360Z,43.77
2019-01-20T01:32:42.766Z,41.97
2019-01-20T01:35:11.208Z,42.20
2019-01-20T01:37:39.611Z,42.33
2019-01-20T01:40:10.960Z,40.80
2019-01-20T01:42:39.508Z,43.60
2019-01-20T01:45:11.228Z,44.90
2019-01-20T01:47:39.667Z,43.70
2019-01-20T01:50:09.449Z,44.30
2019-01-20T01:52:37.868Z,44.60
2019-01-20T01:55:08.335Z,43.93
2019-01-20T01:57:36.836Z,44.67
2019-01-20T02:00:11.713Z,45.13
2019-01-20T02:02:40.143Z,44.13
2019-01-20T02:05:09.776Z,44.73
2019-01-20T02:07:38.538Z,44.33
2019-01-20T02:10:10.099Z,45.17
2019-01-20T02:12:40.145Z,44.73
2019-01-20T02:15:10.816Z,43.00
2019-01-20T02:17:39.516Z,42.10
2019-01-20T02:20:11.347Z,42.03
2019-01-20T02:22:39.872Z,41.47
2019-01-20T02:25:08.403Z,40.87
2019-01-20T02:27:36.867Z,41.53
2019-01-20T02:30:11.308Z,42.13
2019-01-20T02:32:39.776Z,40.33
2019-01-20T02:35:08.363Z,40.73
2019-01-20T02:37:37.091Z,38.77
2019-01-20T02:40:08.693Z,41.57
2019-01-20T02:42:37.121Z,42.33
2019-01-20T02:45:08.071Z,40.60
2019-01-20T02:47:36.544Z,40.70
2019-01-20T02:50:08.125Z,40.93
2019-01-20T02:52:36.525Z,41.07
2019-01-20T02:55:06.411Z,39.93
2019-01-20T02:57:34.878Z,40.10
2019-01-20T03:00:06.785Z,40.67
2019-01-20T03:02:35.256Z,40.33
2019-01-20T03:05:05.033Z,38.80
2019-01-20T03:07:33.451Z,41.27
2019-01-20T03:10:01.893Z,40.20
2019-01-20T03:12:30.307Z,42.17
2019-01-20T03:14:58.740Z,40.70
2019-01-20T03:17:27.217Z,37.50
2019-01-20T03:19:55.651Z,38.50
2019-01-20T03:22:24.093Z,40.40
2019-01-20T03:24:52.523Z,39.80
2019-01-20T03:27:20.923Z,40.60
2019-01-20T03:29:49.360Z,39.73
2019-01-20T03:32:17.788Z,38.03
2019-01-20T03:34:46.250Z,40.60
2019-01-20T03:37:14.679Z,39.53
2019-01-20T03:39:43.128Z,42.10
2019-01-20T03:42:12.290Z,40.93
2019-01-20T03:44:40.875Z,39.87
2019-01-20T03:47:09.347Z,40.20
2019-01-20T03:49:38.053Z,37.97
2019-01-20T03:52:06.584Z,38.27
2019-01-20T03:54:35.063Z,40.77
2019-01-20T03:57:03.573Z,41.03
2019-01-20T03:59:32.004Z,41.67
2019-01-20T04:02:00.443Z,41.50
2019-01-20T04:04:28.894Z,42.00
2019-01-20T04:06:57.323Z,41.07
2019-01-20T04:09:25.850Z,40.13
2019-01-20T04:11:54.300Z,38.47
2019-01-20T04:14:22.787Z,40.20
2019-01-20T04:16:51.495Z,41.57
2019-01-20T04:19:19.931Z,39.70
2019-01-20T04:21:48.602Z,40.20
2019-01-20T04:24:17.043Z,41.17
2019-01-20T04:26:45.465Z,40.13
2019-01-20T04:29:13.933Z,38.97
2019-01-20T04:31:42.348Z,39.40
2019-01-20T04:34:10.769Z,38.73
2019-01-20T04:36:39.223Z,39.60
2019-01-20T04:39:07.839Z,40.57
2019-01-20T04:41:36.266Z,42.00
2019-01-20T04:44:04.851Z,40.67
2019-01-20T04:46:33.280Z,40.40
2019-01-20T04:49:01.737Z,44.00
2019-01-20T04:51:30.147Z,43.47
2019-01-20T04:53:58.595Z,43.67
2019-01-20T04:56:27.052Z,43.50
2019-01-20T04:58:55.501Z,42.33
2019-01-20T05:01:23.917Z,42.63
2019-01-20T05:03:52.437Z,43.13
2019-01-20T05:06:20.857Z,43.73
2019-01-20T05:08:49.306Z,43.33
2019-01-20T05:11:17.759Z,44.30
2019-01-20T05:13:46.170Z,42.63
2019-01-20T05:16:14.691Z,42.47
2019-01-20T05:18:43.118Z,42.03
2019-01-20T05:21:11.564Z,41.17
2019-01-20T05:23:39.987Z,44.63
2019-01-20T05:26:08.509Z,44.23
2019-01-20T05:28:37.186Z,42.93
2019-01-20T05:31:05.675Z,42.63
2019-01-20T05:33:34.098Z,43.57
2019-01-20T05:36:02.550Z,46.40
2019-01-20T05:38:31.007Z,45.47
2019-01-20T05:40:59.435Z,45.70
2019-01-20T05:43:27.858Z,42.93
2019-01-20T05:45:56.318Z,41.73
2019-01-20T05:48:24.776Z,44.33
2019-01-20T05:50:53.215Z,43.10
2019-01-20T05:53:21.666Z,42.93
2019-01-20T05:55:50.154Z,44.17
2019-01-20T05:58:18.863Z,42.97
2019-01-20T06:00:47.292Z,45.50
2019-01-20T06:03:15.746Z,45.77
2019-01-20T06:05:44.190Z,45.00
2019-01-20T06:08:12.635Z,46.13
2019-01-20T06:10:41.063Z,46.70
2019-01-20T06:13:09.564Z,45.03
2019-01-20T06:15:37.993Z,41.83
2019-01-20T06:18:06.863Z,43.30
2019-01-20T06:20:35.297Z,42.77
2019-01-20T06:23:03.779Z,42.67
2019-01-20T06:25:32.231Z,43.87
2019-01-20T06:28:00.661Z,46.03
2019-01-20T06:30:31.300Z,43.47
2019-01-20T06:32:59.726Z,46.07
2019-01-20T06:35:28.335Z,43.67
2019-01-20T06:37:56.764Z,43.93
2019-01-20T06:40:25.239Z,44.33
2019-01-20T06:43:01.286Z,43.30
2019-01-20T06:45:23.843Z,41.80
2019-01-20T06:47:52.296Z,42.50
2019-01-20T06:50:21.394Z,41.53
2019-01-20T06:52:49.806Z,42.40
2019-01-20T06:55:18.325Z,43.80
2019-01-20T06:57:46.771Z,41.40
2019-01-20T07:00:22.915Z,41.27
2019-01-20T07:02:51.406Z,42.87
2019-01-20T07:05:19.929Z,40.23
2019-01-20T07:07:48.506Z,40.47
2019-01-20T07:10:18.387Z,41.07
2019-01-20T07:12:46.952Z,40.40
2019-01-20T07:15:20.214Z,39.90
2019-01-20T07:17:48.890Z,38.20
2019-01-20T07:20:17.581Z,39.10
2019-01-20T07:22:46.001Z,39.00
2019-01-20T07:25:14.511Z,38.30
2019-01-20T07:27:42.975Z,37.70
2019-01-20T07:30:14.519Z,38.03
2019-01-20T07:32:43.046Z,38.33
2019-01-20T07:35:11.635Z,38.80
2019-01-20T07:37:40.075Z,39.27
2019-01-20T07:40:14.455Z,39.00
2019-01-20T07:42:42.970Z,39.40
2019-01-20T07:45:12.928Z,39.77
2019-01-20T07:47:41.384Z,39.03
2019-01-20T07:50:15.443Z,38.20
2019-01-20T07:52:43.896Z,40.67
2019-01-20T07:55:12.382Z,39.43
2019-01-20T07:57:40.831Z,40.53
2019-01-20T08:00:12.283Z,38.97
2019-01-20T08:02:40.707Z,39.90
2019-01-20T08:05:09.794Z,39.37
2019-01-20T08:07:38.215Z,39.43
2019-01-20T08:10:12.396Z,38.53
2019-01-20T08:12:40.823Z,39.40
2019-01-20T08:15:11.807Z,38.77
2019-01-20T08:17:40.235Z,38.33
2019-01-20T08:20:14.604Z,38.53
2019-01-20T08:22:43.052Z,38.53
2019-01-20T08:25:13.013Z,37.53
2019-01-20T08:27:41.551Z,37.30
2019-01-20T08:30:15.268Z,35.83
2019-01-20T08:32:43.763Z,36.80
2019-01-20T08:35:13.651Z,37.40
2019-01-20T08:37:42.223Z,37.20
2019-01-20T08:40:13.788Z,37.23
2019-01-20T08:42:42.216Z,38.57
2019-01-20T08:45:13.732Z,37.23
2019-01-20T08:47:42.491Z,36.13
2019-01-20T08:50:11.351Z,36.37
2019-01-20T08:52:39.859Z,38.47
2019-01-20T08:55:09.080Z,37.67
2019-01-20T08:57:37.519Z,37.47
2019-01-20T09:00:09.039Z,37.10
2019-01-20T09:02:37.467Z,36.90
2019-01-20T09:05:06.547Z,36.63
2019-01-20T09:07:35.047Z,36.57
2019-01-20T09:10:05.043Z,35.47
2019-01-20T09:12:33.884Z,35.40
2019-01-20T09:15:02.316Z,34.93
2019-01-20T09:17:30.763Z,37.17
2019-01-20T09:19:59.219Z,36.87
2019-01-20T09:22:27.635Z,40.50
2019-01-20T09:24:56.345Z,37.60
2019-01-20T09:27:24.800Z,39.20
2019-01-20T09:29:53.259Z,35.53
2019-01-20T09:32:21.686Z,36.10
2019-01-20T09:34:50.108Z,35.33
2019-01-20T09:37:18.561Z,33.00
2019-01-20T09:39:46.987Z,34.83
2019-01-20T09:42:15.451Z,34.97
2019-01-20T09:44:43.876Z,36.30
2019-01-20T09:47:12.339Z,37.30
2019-01-20T09:49:40.787Z,34.10
2019-01-20T09:52:09.208Z,35.53
2019-01-20T09:54:37.652Z,35.60
2019-01-20T09:57:06.167Z,34.63
2019-01-20T09:59:34.618Z,31.23
2019-01-20T10:02:03.083Z,32.77
2019-01-20T10:04:31.531Z,33.30
2019-01-20T10:06:59.979Z,33.43
2019-01-20T10:09:28.415Z,33.53
2019-01-20T10:11:56.887Z,32.40
2019-01-20T10:14:25.307Z,31.10
2019-01-20T10:16:53.767Z,32.83
2019-01-20T10:19:22.207Z,32.50
2019-01-20T10:21:50.648Z,32.20
2019-01-20T10:24:19.081Z,34.10
2019-01-20T10:26:47.533Z,30.03
2019-01-20T10:29:15.951Z,31.73
2019-01-20T10:31:44.387Z,29.70
2019-01-20T10:34:12.834Z,34.73
2019-01-20T10:36:41.298Z,31.47
2019-01-20T10:39:11.252Z,30.33
2019-01-20T10:41:39.676Z,32.63
2019-01-20T10:44:08.266Z,31.57
2019-01-20T10:46:36.744Z,30.57
2019-01-20T10:49:05.382Z,30.00
2019-01-20T10:51:33.898Z,28.53
2019-01-20T10:54:02.314Z,29.43
2019-01-20T10:56:30.758Z,30.60
2019-01-20T10:58:59.234Z,28.93
2019-01-20T11:01:27.720Z,28.40
2019-01-20T11:03:56.130Z,28.93
2019-01-20T11:06:24.584Z,29.30
2019-01-20T11:08:53.923Z,31.20
2019-01-20T11:11:22.391Z,30.13
2019-01-20T11:13:50.810Z,34.27
2019-01-20T11:16:19.488Z,34.90
2019-01-20T11:18:47.921Z,30.03
2019-01-20T11:21:16.451Z,30.33
2019-01-20T11:23:45.036Z,44.63
2019-01-20T11:26:13.472Z,47.53
2019-01-20T11:28:41.919Z,29.60
2019-01-20T11:31:10.435Z,31.53
2019-01-20T11:33:38.879Z,30.97
2019-01-20T11:36:07.323Z,31.17
2019-01-20T11:38:35.780Z,28.93
2019-01-20T11:41:04.278Z,24.77
2019-01-20T11:43:32.738Z,23.73
2019-01-20T11:46:01.195Z,24.57
2019-01-20T11:48:29.640Z,23.20
2019-01-20T11:50:58.066Z,22.87
2019-01-20T11:53:26.547Z,21.87
2019-01-20T11:55:54.965Z,20.37
2019-01-20T11:58:23.435Z,21.03
2019-01-20T12:00:52.280Z,21.73
2019-01-20T12:03:20.798Z,21.23
2019-01-20T12:05:49.291Z,21.33
2019-01-20T12:08:17.755Z,21.17
2019-01-20T12:10:46.263Z,21.87
2019-01-20T12:13:15.761Z,22.00
2019-01-20T12:15:44.273Z,21.20
2019-01-20T12:18:12.803Z,20.63
2019-01-20T12:20:41.303Z,19.17
2019-01-20T12:23:09.822Z,19.87
2019-01-20T12:25:38.274Z,18.57
2019-01-20T12:28:07.166Z,15.63
2019-01-20T12:30:37.928Z,16.60
2019-01-20T12:33:06.686Z,15.27
2019-01-20T12:35:35.575Z,17.43
2019-01-20T12:38:04.086Z,16.67
2019-01-20T12:40:38.272Z,17.50
2019-01-20T12:43:06.783Z,15.43
2019-01-20T12:45:35.238Z,16.50
2019-01-20T12:48:04.243Z,18.07
2019-01-20T12:50:32.687Z,15.10
2019-01-20T12:53:01.139Z,15.83
2019-01-20T12:55:29.799Z,16.57
2019-01-20T12:57:58.240Z,17.30
2019-01-20T13:00:26.973Z,20.13
2019-01-20T13:02:55.672Z,18.57
2019-01-20T13:05:24.119Z,18.00
2019-01-20T13:07:52.559Z,17.47
2019-01-20T13:10:21.542Z,17.20
2019-01-20T13:12:50.027Z,16.67
2019-01-20T13:15:21.067Z,16.07
2019-01-20T13:17:49.511Z,17.17
2019-01-20T13:20:22.340Z,15.40
2019-01-20T13:22:50.839Z,13.57
2019-01-20T13:25:21.615Z,16.13
2019-01-20T13:27:50.120Z,17.43
2019-01-20T13:30:21.199Z,18.03
2019-01-20T13:32:49.733Z,19.00
2019-01-20T13:35:19.316Z,19.73
2019-01-20T13:37:50.367Z,20.50
2019-01-20T13:40:36.743Z,21.20
2019-01-20T13:43:05.261Z,21.17
2019-01-20T13:45:33.778Z,20.40
2019-01-20T13:48:02.231Z,20.90
2019-01-20T13:50:30.754Z,20.30
2019-01-20T13:52:59.171Z,18.30
2019-01-20T13:55:27.602Z,20.50
2019-01-20T13:57:56.091Z,22.00
2019-01-20T14:00:26.487Z,22.17
2019-01-20T14:02:54.983Z,24.97
2019-01-20T14:05:23.486Z,25.30
2019-01-20T14:07:51.968Z,25.20
2019-01-20T14:10:24.856Z,25.37
2019-01-20T14:12:53.423Z,27.13
2019-01-20T14:15:21.919Z,27.63
2019-01-20T14:17:50.468Z,27.90
2019-01-20T14:20:26.445Z,28.70
2019-01-20T14:22:54.896Z,29.60
2019-01-20T14:25:28.105Z,29.70
2019-01-20T14:27:56.555Z,27.93
2019-01-20T14:30:30.442Z,29.03
2019-01-20T14:32:58.858Z,28.07
2019-01-20T14:35:27.435Z,27.87
2019-01-20T14:37:56.023Z,29.23
2019-01-20T14:40:25.307Z,28.90
2019-01-20T14:42:53.981Z,27.93
2019-01-20T14:45:22.743Z,29.10
2019-01-20T14:47:51.168Z,28.33
2019-01-20T14:50:27.446Z,28.97
2019-01-20T14:52:55.987Z,27.93
2019-01-20T14:55:24.979Z,28.50
2019-01-20T14:57:53.491Z,28.33
2019-01-20T15:00:27.780Z,29.73
2019-01-20T15:02:56.239Z,28.27
2019-01-20T15:05:24.812Z,28.40
2019-01-20T15:07:53.334Z,28.23
2019-01-20T15:10:21.851Z,28.90
2019-01-20T15:12:50.416Z,28.00
2019-01-20T15:15:21.768Z,28.93
2019-01-20T15:17:50.579Z,29.47
2019-01-20T15:20:19.125Z,29.37
2019-01-20T15:22:47.578Z,29.47
2019-01-20T15:25:18.080Z,28.87
2019-01-20T15:27:46.528Z,32.17
2019-01-20T15:30:20.804Z,31.70
2019-01-20T15:32:50.277Z,30.93
2019-01-20T15:35:18.879Z,30.87
2019-01-20T15:37:47.299Z,31.43
2019-01-20T15:40:20.829Z,31.70
2019-01-20T15:42:49.359Z,30.97
2019-01-20T15:45:20.322Z,33.67
2019-01-20T15:47:48.818Z,31.03
2019-01-20T15:50:19.765Z,32.80
2019-01-20T15:52:48.229Z,32.17
2019-01-20T15:55:16.739Z,31.97
2019-01-20T15:57:45.245Z,33.50
2019-01-20T16:00:25.469Z,33.13
2019-01-20T16:02:54.135Z,33.47
2019-01-20T16:05:23.401Z,34.77
2019-01-20T16:07:51.916Z,32.80
2019-01-20T16:10:20.412Z,33.23
2019-01-20T16:12:48.915Z,34.57
2019-01-20T16:15:24.794Z,34.30
2019-01-20T16:17:54.275Z,32.90
2019-01-20T16:20:23.258Z,33.70
2019-01-20T16:22:51.902Z,30.57
2019-01-20T16:25:26.199Z,31.23
2019-01-20T16:27:54.719Z,29.27
2019-01-20T16:30:25.774Z,30.53
2019-01-20T16:32:54.223Z,30.97
2019-01-20T16:35:23.304Z,30.40
2019-01-20T16:37:51.912Z,30.80
2019-01-20T16:40:22.683Z,32.00
2019-01-20T16:42:51.228Z,31.20
2019-01-20T16:45:22.280Z,31.73
2019-01-20T16:47:53.615Z,30.67
2019-01-20T16:50:24.204Z,31.47
2019-01-20T16:52:54.668Z,31.30
2019-01-20T16:55:22.874Z,31.73
2019-01-20T16:57:51.682Z,32.60
2019-01-20T17:00:22.702Z,32.40
2019-01-20T17:02:51.292Z,31.93
2019-01-20T17:05:19.813Z,33.07
2019-01-20T17:07:48.239Z,31.20
2019-01-20T17:10:21.527Z,30.57
2019-01-20T17:12:50.131Z,30.63
2019-01-20T17:15:26.444Z,35.73
2019-01-20T17:17:54.879Z,34.73
2019-01-20T17:20:23.618Z,35.10
2019-01-20T17:22:52.177Z,34.90
2019-01-20T17:25:20.605Z,36.33
2019-01-20T17:27:49.180Z,38.27
2019-01-20T17:30:23.385Z,38.97
2019-01-20T17:32:52.066Z,36.17
2019-01-20T17:35:20.522Z,39.63
2019-01-20T17:37:48.972Z,37.20
2019-01-20T17:40:19.955Z,38.27
2019-01-20T17:42:48.457Z,35.93
2019-01-20T17:45:22.506Z,43.57
2019-01-20T17:47:51.016Z,39.57
2019-01-20T17:50:24.683Z,49.53
2019-01-20T17:52:53.580Z,45.13
2019-01-20T17:55:22.005Z,46.30
2019-01-20T17:57:50.528Z,38.20
2019-01-20T18:00:29.047Z,39.30
2019-01-20T18:02:57.562Z,33.43
2019-01-20T18:05:26.239Z,36.90
2019-01-20T18:07:54.695Z,37.63
2019-01-20T18:10:23.148Z,37.97
2019-01-20T18:12:53.228Z,38.13
2019-01-20T18:15:23.640Z,37.90
2019-01-20T18:17:52.165Z,40.10
2019-01-20T18:20:23.703Z,38.80
2019-01-20T18:22:52.243Z,40.03
2019-01-20T18:25:21.555Z,39.83
2019-01-20T18:27:49.979Z,40.50
2019-01-20T18:30:21.040Z,41.30
2019-01-20T18:32:49.711Z,38.97
2019-01-20T18:35:18.303Z,38.03
2019-01-20T18:37:46.908Z,39.50
2019-01-20T18:40:17.272Z,37.27
2019-01-20T18:42:45.786Z,36.40
2019-01-20T18:45:16.379Z,36.93
2019-01-20T18:47:44.911Z,36.10
2019-01-20T18:50:16.415Z,36.33
2019-01-20T18:52:44.872Z,36.47
2019-01-20T18:55:15.331Z,36.53
2019-01-20T18:57:44.167Z,36.47
2019-01-20T19:00:21.279Z,36.57
2019-01-20T19:02:51.033Z,34.47
2019-01-20T19:05:19.578Z,35.77
2019-01-20T19:07:48.039Z,35.73
2019-01-20T19:10:18.974Z,36.70
2019-01-20T19:12:47.475Z,40.13
2019-01-20T19:15:17.762Z,38.90
2019-01-20T19:17:46.334Z,38.10
2019-01-20T19:20:25.230Z,38.63
2019-01-20T19:22:55.828Z,36.93
2019-01-20T19:25:24.523Z,38.37
2019-01-20T19:27:53.036Z,34.97
2019-01-20T19:30:32.511Z,37.57
2019-01-20T19:33:01.025Z,37.23
2019-01-20T19:35:29.532Z,35.53
2019-01-20T19:37:58.271Z,37.70
2019-01-20T19:40:26.790Z,38.93
2019-01-20T19:42:55.223Z,37.23
2019-01-20T19:45:23.881Z,42.33
2019-01-20T19:47:52.484Z,40.80
2019-01-20T19:50:21.594Z,39.33
2019-01-20T19:52:50.098Z,47.03
2019-01-20T19:55:28.944Z,40.30
2019-01-20T19:57:57.485Z,42.80
2019-01-20T20:00:29.713Z,41.80
2019-01-20T20:02:58.174Z,42.90
2019-01-20T20:05:26.843Z,39.07
2019-01-20T20:07:56.235Z,38.07
2019-01-20T20:10:26.439Z,39.77
2019-01-20T20:12:56.174Z,41.07
2019-01-20T20:15:26.192Z,41.87
2019-01-20T20:17:54.756Z,40.83
2019-01-20T20:20:23.188Z,42.53
2019-01-20T20:22:51.705Z,42.40
2019-01-20T20:25:21.868Z,39.57
2019-01-20T20:27:50.670Z,44.03
2019-01-20T20:30:21.450Z,44.30
2019-01-20T20:32:49.970Z,42.97
2019-01-20T20:35:18.469Z,41.87
2019-01-20T20:37:47.008Z,40.40
2019-01-20T20:40:17.952Z,40.97
2019-01-20T20:42:46.375Z,38.37
2019-01-20T20:45:17.537Z,41.13
2019-01-20T20:47:46.203Z,41.70
2019-01-20T20:50:16.101Z,42.97
2019-01-20T20:52:46.148Z,39.90
2019-01-20T20:55:15.003Z,42.17
2019-01-20T20:57:43.509Z,38.97
2019-01-20T21:00:17.931Z,39.23
2019-01-20T21:02:46.367Z,40.27
2019-01-20T21:05:14.867Z,40.77
2019-01-20T21:07:43.335Z,38.97
2019-01-20T21:10:14.423Z,37.77
2019-01-20T21:12:42.871Z,38.90
2019-01-20T21:15:13.977Z,43.40
2019-01-20T21:17:48.165Z,40.23
2019-01-20T21:20:15.999Z,40.10
2019-01-20T21:22:44.502Z,42.80
2019-01-20T21:25:13.107Z,38.67
2019-01-20T21:27:41.703Z,40.50
2019-01-20T21:30:13.284Z,41.43
2019-01-20T21:32:41.750Z,38.47
2019-01-20T21:35:10.307Z,40.63
2019-01-20T21:37:38.759Z,40.60
2019-01-20T21:40:10.573Z,41.67
2019-01-20T21:42:39.024Z,43.37
2019-01-20T21:45:09.723Z,43.30
2019-01-20T21:47:38.150Z,42.40
2019-01-20T21:50:09.671Z,41.47
2019-01-20T21:52:38.174Z,40.40
2019-01-20T21:55:06.759Z,40.67
2019-01-20T21:57:35.175Z,35.83
2019-01-20T22:00:06.327Z,40.03
2019-01-20T22:02:35.051Z,39.63
2019-01-20T22:05:04.023Z,39.63
2019-01-20T22:07:32.499Z,38.57
2019-01-20T22:10:00.919Z,39.03
2019-01-20T22:12:29.591Z,38.53
2019-01-20T22:14:58.034Z,37.50
2019-01-20T22:17:26.464Z,40.43
2019-01-20T22:19:54.988Z,40.40
2019-01-20T22:22:23.428Z,39.40
2019-01-20T22:24:51.895Z,42.80
2019-01-20T22:27:20.320Z,41.17
2019-01-20T22:29:48.756Z,39.27
2019-01-20T22:32:19.899Z,39.87
2019-01-20T22:34:48.391Z,39.33
2019-01-20T22:37:16.835Z,37.97
2019-01-20T22:39:45.300Z,39.20
2019-01-20T22:42:13.727Z,37.17
2019-01-20T22:44:42.158Z,35.63
2019-01-20T22:47:10.628Z,37.80
2019-01-20T22:49:39.067Z,37.13
2019-01-20T22:52:07.571Z,38.57
2019-01-20T22:54:36.280Z,36.97
2019-01-20T22:57:07.421Z,34.97
2019-01-20T22:59:35.869Z,38.73
2019-01-20T23:02:04.703Z,37.30
2019-01-20T23:04:33.231Z,36.70
2019-01-20T23:07:01.721Z,36.73
2019-01-20T23:09:30.219Z,39.47
2019-01-20T23:11:58.798Z,39.90
2019-01-20T23:14:27.410Z,36.07
2019-01-20T23:16:55.847Z,38.50
2019-01-20T23:19:24.312Z,37.50
2019-01-20T23:21:52.748Z,35.83
2019-01-20T23:24:21.202Z,36.83
2019-01-20T23:26:49.657Z,37.43
2019-01-20T23:29:18.092Z,39.07
2019-01-20T23:31:46.539Z,39.00
2019-01-20T23:34:14.963Z,39.87
2019-01-20T23:36:43.423Z,37.70
2019-01-20T23:39:11.867Z,37.63
2019-01-20T23:41:40.321Z,40.97
2019-01-20T23:44:08.758Z,40.67
2019-01-20T23:46:37.213Z,39.60
2019-01-20T23:49:05.634Z,39.57
2019-01-20T23:51:34.092Z,38.57
2019-01-20T23:54:02.530Z,40.93
2019-01-20T23:56:30.951Z,38.93
2019-01-20T23:58:59.411Z,40.17
